Time;durP1;ratioP1;P1;durP2;ratioP2;P2;SDS_P1;SDS_P2;PMS_P1;PMS_P2;Temp;Humidity;BMP_temperature;BMP_pressure;BME280_temperature;BME280_humidity;BME280_pressure;Samples;Min_cycle;Max_cycle;Signal;HPM_P1;HPM_P2
2021/10/29 00:00:49;;;;;;;69.88;24.50;;;;;;;;;;6228053;28;20044;-82
2021/10/29 00:03:51;;;;;;;69.22;24.67;;;;;;;;;;6218632;28;20057;-82
2021/10/29 00:06:52;;;;;;;65.57;23.10;;;;;;;;;;6236885;28;20048;-82
2021/10/29 00:09:54;;;;;;;62.45;22.45;;;;;;;;;;6245821;28;20051;-83
2021/10/29 00:12:56;;;;;;;67.35;22.90;;;;;;;;;;6225777;28;20044;-83
2021/10/29 00:15:57;;;;;;;69.30;22.02;;;;;;;;;;6221023;28;20149;-84
2021/10/29 00:18:59;;;;;;;59.72;20.83;;;;;;;;;;6222952;28;20068;-82
2021/10/29 00:22:01;;;;;;;67.50;22.13;;;;;;;;;;6245846;28;20041;-83
2021/10/29 00:25:03;;;;;;;65.30;21.98;;;;;;;;;;6244253;28;20132;-83
2021/10/29 00:28:05;;;;;;;66.40;21.63;;;;;;;;;;6220334;28;20038;-82
2021/10/29 00:31:07;;;;;;;59.42;22.42;;;;;;;;;;6219091;28;20050;-83
2021/10/29 00:34:09;;;;;;;60.58;22.35;;;;;;;;;;6223618;28;20134;-82
2021/10/29 00:37:10;;;;;;;59.88;21.20;;;;;;;;;;6226079;28;20064;-83
2021/10/29 00:40:13;;;;;;;67.70;23.02;;;;;;;;;;6220364;28;20048;-83
2021/10/29 00:43:15;;;;;;;66.90;22.50;;;;;;;;;;6219474;28;20044;-83
2021/10/29 00:46:17;;;;;;;64.35;22.42;;;;;;;;;;6231344;28;20046;-82
2021/10/29 00:49:19;;;;;;;67.75;23.50;;;;;;;;;;6228935;28;20052;-83
2021/10/29 00:52:21;;;;;;;71.72;23.17;;;;;;;;;;6240046;28;20116;-82
2021/10/29 00:55:23;;;;;;;72.70;23.45;;;;;;;;;;6242625;28;20045;-83
2021/10/29 00:58:24;;;;;;;68.95;22.45;;;;;;;;;;6242023;28;20100;-83
2021/10/29 01:01:26;;;;;;;59.28;21.75;;;;;;;;;;6193429;28;20057;-82
2021/10/29 01:04:28;;;;;;;65.60;22.67;;;;;;;;;;6206214;28;20048;-82
2021/10/29 01:07:31;;;;;;;69.47;22.33;;;;;;;;;;6243479;28;20176;-83
2021/10/29 01:10:33;;;;;;;69.65;20.98;;;;;;;;;;6242143;28;20109;-82
2021/10/29 01:13:34;;;;;;;70.80;23.20;;;;;;;;;;6221210;28;20463;-82
2021/10/29 01:16:36;;;;;;;68.50;22.90;;;;;;;;;;6218952;28;20143;-83
2021/10/29 01:19:40;;;;;;;69.82;23.85;;;;;;;;;;6229214;28;20042;-82
2021/10/29 01:22:41;;;;;;;70.90;21.92;;;;;;;;;;6223172;28;20052;-82
2021/10/29 01:25:43;;;;;;;66.65;22.55;;;;;;;;;;6217808;28;20583;-82
2021/10/29 01:28:46;;;;;;;66.10;22.63;;;;;;;;;;6215176;28;20046;-82
2021/10/29 01:31:48;;;;;;;67.10;22.80;;;;;;;;;;6233848;28;20046;-81
2021/10/29 01:34:50;;;;;;;64.55;22.10;;;;;;;;;;6229156;28;20042;-82
2021/10/29 01:37:51;;;;;;;68.68;22.92;;;;;;;;;;6211405;28;20057;-82
2021/10/29 01:40:53;;;;;;;65.32;22.08;;;;;;;;;;6193816;28;20642;-82
2021/10/29 01:43:55;;;;;;;69.53;23.08;;;;;;;;;;6213891;28;20049;-81
2021/10/29 01:46:56;;;;;;;68.70;23.13;;;;;;;;;;6216358;28;20042;-83
2021/10/29 01:49:58;;;;;;;68.38;22.58;;;;;;;;;;6236509;28;20053;-83
2021/10/29 01:53:00;;;;;;;68.38;23.40;;;;;;;;;;6227378;28;20117;-83
2021/10/29 01:56:02;;;;;;;67.70;23.35;;;;;;;;;;6224007;28;20048;-83
2021/10/29 01:59:04;;;;;;;71.95;24.17;;;;;;;;;;6208064;28;20042;-81
2021/10/29 02:02:06;;;;;;;72.77;23.10;;;;;;;;;;6204517;28;20053;-82
2021/10/29 02:05:09;;;;;;;72.47;24.00;;;;;;;;;;6217148;28;20496;-83
2021/10/29 02:08:11;;;;;;;71.33;23.47;;;;;;;;;;6219400;28;20080;-81
2021/10/29 02:11:12;;;;;;;74.90;24.92;;;;;;;;;;6219652;28;20049;-82
2021/10/29 02:14:14;;;;;;;67.70;23.88;;;;;;;;;;6221382;28;20177;-83
2021/10/29 02:17:15;;;;;;;66.70;23.60;;;;;;;;;;6219085;28;20052;-82
2021/10/29 02:20:17;;;;;;;68.43;22.67;;;;;;;;;;6218781;28;20045;-82
2021/10/29 02:23:19;;;;;;;66.65;22.83;;;;;;;;;;6218089;28;20499;-82
2021/10/29 02:26:20;;;;;;;65.30;23.60;;;;;;;;;;6224145;28;20042;-81
2021/10/29 02:29:23;;;;;;;65.20;22.40;;;;;;;;;;6213746;28;20124;-81
2021/10/29 02:32:24;;;;;;;60.88;23.00;;;;;;;;;;6232647;28;20076;-83
2021/10/29 02:35:26;;;;;;;65.18;22.83;;;;;;;;;;6227603;28;20414;-82
2021/10/29 02:38:28;;;;;;;61.95;22.60;;;;;;;;;;6220303;28;20046;-82
2021/10/29 02:41:30;;;;;;;73.22;23.33;;;;;;;;;;6217811;28;20046;-82
2021/10/29 02:44:31;;;;;;;63.80;23.35;;;;;;;;;;6218845;28;20116;-83
2021/10/29 02:47:33;;;;;;;62.33;23.02;;;;;;;;;;6228730;28;20141;-82
2021/10/29 02:50:35;;;;;;;59.13;21.50;;;;;;;;;;6215428;28;20064;-81
2021/10/29 02:53:37;;;;;;;57.45;21.98;;;;;;;;;;6201281;28;20042;-83
2021/10/29 02:56:38;;;;;;;58.78;22.15;;;;;;;;;;6216351;28;20048;-83
2021/10/29 02:59:40;;;;;;;61.13;21.17;;;;;;;;;;6221841;28;20045;-83
2021/10/29 03:02:43;;;;;;;65.95;22.58;;;;;;;;;;6242340;28;20073;-82
2021/10/29 03:05:45;;;;;;;63.13;22.05;;;;;;;;;;6232934;28;20053;-82
2021/10/29 03:08:47;;;;;;;62.03;21.95;;;;;;;;;;6220434;28;20064;-82
2021/10/29 03:11:49;;;;;;;56.92;20.25;;;;;;;;;;6216663;28;20182;-82
2021/10/29 03:14:51;;;;;;;58.95;21.92;;;;;;;;;;6229575;28;20047;-83
2021/10/29 03:17:52;;;;;;;63.53;21.92;;;;;;;;;;6213109;28;20440;-82
2021/10/29 03:20:54;;;;;;;58.83;20.75;;;;;;;;;;6220331;28;20133;-82
2021/10/29 03:23:56;;;;;;;55.83;20.02;;;;;;;;;;6220528;28;20057;-82
2021/10/29 03:26:58;;;;;;;62.72;20.15;;;;;;;;;;6222164;28;20048;-83
2021/10/29 03:30:00;;;;;;;56.47;20.77;;;;;;;;;;6222454;28;20726;-83
2021/10/29 03:33:02;;;;;;;56.85;20.65;;;;;;;;;;6224324;28;20049;-82
2021/10/29 03:36:05;;;;;;;56.72;20.13;;;;;;;;;;6216889;28;20037;-82
2021/10/29 03:39:14;;;;;;;59.58;20.50;;;;;;;;;;6219311;28;20049;-83
2021/10/29 03:42:24;;;;;;;58.78;21.50;;;;;;;;;;6212706;28;20043;-83
2021/10/29 03:45:33;;;;;;;57.53;20.13;;;;;;;;;;6202042;28;20046;-82
2021/10/29 03:51:58;;;;;;;64.93;21.05;;;;;;;;;;6215867;28;20053;-84
2021/10/29 03:55:06;;;;;;;55.35;21.00;;;;;;;;;;6216138;28;20132;-82
2021/10/29 03:58:08;;;;;;;59.38;23.20;;;;;;;;;;6212508;28;20559;-83
2021/10/29 04:01:10;;;;;;;59.92;21.05;;;;;;;;;;6232790;28;20041;-83
2021/10/29 04:04:11;;;;;;;62.15;21.50;;;;;;;;;;6236671;28;20057;-83
2021/10/29 04:07:13;;;;;;;62.15;21.13;;;;;;;;;;6217430;28;20048;-82
2021/10/29 04:10:15;;;;;;;60.70;21.80;;;;;;;;;;6222995;28;20042;-83
2021/10/29 04:13:17;;;;;;;60.80;21.85;;;;;;;;;;6226589;28;21013;-82
2021/10/29 04:16:19;;;;;;;60.15;21.05;;;;;;;;;;6217712;28;20087;-83
2021/10/29 04:19:21;;;;;;;63.85;22.27;;;;;;;;;;6213445;28;20050;-83
2021/10/29 04:22:23;;;;;;;54.53;21.95;;;;;;;;;;6217213;28;20041;-84
2021/10/29 04:25:24;;;;;;;51.53;20.00;;;;;;;;;;6215162;28;20042;-83
2021/10/29 04:28:27;;;;;;;58.78;19.90;;;;;;;;;;6218326;28;20116;-82
2021/10/29 04:31:31;;;;;;;64.70;20.75;;;;;;;;;;6227534;28;20068;-83
2021/10/29 04:34:33;;;;;;;58.75;23.20;;;;;;;;;;6213415;28;20057;-82
2021/10/29 04:37:34;;;;;;;66.47;22.50;;;;;;;;;;6231678;28;20430;-83
2021/10/29 04:40:37;;;;;;;55.65;21.10;;;;;;;;;;6240861;28;20049;-83
2021/10/29 04:43:40;;;;;;;59.97;20.45;;;;;;;;;;6215214;28;20528;-83
2021/10/29 04:46:42;;;;;;;61.00;20.92;;;;;;;;;;6231796;28;20060;-81
2021/10/29 04:49:44;;;;;;;54.55;19.90;;;;;;;;;;6219691;28;20184;-82
2021/10/29 04:52:45;;;;;;;59.95;19.08;;;;;;;;;;6193223;28;20046;-82
2021/10/29 04:55:47;;;;;;;51.85;19.65;;;;;;;;;;6194590;28;20046;-83
2021/10/29 04:58:49;;;;;;;57.70;20.35;;;;;;;;;;6208566;28;20049;-83
2021/10/29 05:01:50;;;;;;;52.22;20.65;;;;;;;;;;6200393;28;20045;-82
2021/10/29 05:04:52;;;;;;;54.30;20.25;;;;;;;;;;6226197;28;20542;-83
2021/10/29 05:07:54;;;;;;;56.03;20.88;;;;;;;;;;6246352;28;20099;-82
2021/10/29 05:10:56;;;;;;;60.50;19.77;;;;;;;;;;6253159;28;20083;-83
2021/10/29 05:13:58;;;;;;;56.25;20.92;;;;;;;;;;6257077;28;20048;-82
2021/10/29 05:17:00;;;;;;;59.78;20.75;;;;;;;;;;6241902;28;20440;-82
2021/10/29 05:20:04;;;;;;;60.45;19.98;;;;;;;;;;6244778;28;20756;-82
2021/10/29 05:23:05;;;;;;;;;;;;;;;;;;6244828;28;20396;-82
2021/10/29 05:26:07;;;;;;;64.80;21.73;;;;;;;;;;6246368;28;19998;-82
2021/10/29 05:29:09;;;;;;;63.80;22.17;;;;;;;;;;6255351;28;20041;-83
2021/10/29 05:32:11;;;;;;;60.88;20.20;;;;;;;;;;6267151;28;20043;-82
2021/10/29 05:35:12;;;;;;;58.30;20.52;;;;;;;;;;6246425;28;20042;-83
2021/10/29 05:38:14;;;;;;;57.65;19.63;;;;;;;;;;6223238;28;20124;-82
2021/10/29 05:41:16;;;;;;;56.58;20.67;;;;;;;;;;6238203;28;20054;-81
2021/10/29 05:44:18;;;;;;;58.05;20.83;;;;;;;;;;6236018;28;20101;-81
2021/10/29 05:47:22;;;;;;;49.72;18.33;;;;;;;;;;6247602;28;20042;-83
2021/10/29 05:50:23;;;;;;;;;;;;;;;;;;6244927;28;20042;-83
2021/10/29 05:56:32;;;;;;;68.97;20.83;;;;;;;;;;6247266;28;20048;-83
2021/10/29 05:59:35;;;;;;;70.00;21.73;;;;;;;;;;6244717;28;20068;-82
2021/10/29 06:02:37;;;;;;;66.70;21.57;;;;;;;;;;6246944;28;20092;-82
2021/10/29 06:05:39;;;;;;;64.22;21.50;;;;;;;;;;6242780;28;20091;-83
2021/10/29 06:08:41;;;;;;;66.03;20.17;;;;;;;;;;6243614;28;20149;-83
2021/10/29 06:11:43;;;;;;;68.47;21.90;;;;;;;;;;6221610;28;20045;-83
2021/10/29 06:14:45;;;;;;;80.25;22.13;;;;;;;;;;6245631;28;20541;-83
2021/10/29 06:17:46;;;;;;;75.75;23.02;;;;;;;;;;6246486;28;20109;-82
2021/10/29 06:20:48;;;;;;;66.50;20.70;;;;;;;;;;6233893;28;20766;-83
2021/10/29 06:27:01;;;;;;;59.33;20.15;;;;;;;;;;6242268;28;20049;-81
2021/10/29 06:30:05;;;;;;;63.05;20.73;;;;;;;;;;6237618;28;20128;-81
2021/10/29 06:33:08;;;;;;;65.97;22.05;;;;;;;;;;6242960;28;20041;-80
2021/10/29 06:36:10;;;;;;;;;;;;;;;;;;6245378;28;20128;-81
2021/10/29 06:39:11;;;;;;;55.28;18.77;;;;;;;;;;6247767;28;19931;-82
2021/10/29 06:42:24;;;;;;;59.03;19.20;;;;;;;;;;6249351;28;20116;-82
2021/10/29 06:49:05;;;;;;;64.25;21.92;;;;;;;;;;6247960;28;20057;-82
2021/10/29 07:01:50;;;;;;;61.47;20.40;;;;;;;;;;6249498;28;20112;-83
2021/10/29 07:41:22;;;;;;;63.45;21.13;;;;;;;;;;6244846;28;20384;-83
2021/10/29 07:44:28;;;;;;;55.97;21.30;;;;;;;;;;6226425;28;20046;-82
2021/10/29 07:47:30;;;;;;;54.22;20.60;;;;;;;;;;6211899;28;20499;-83
2021/10/29 07:50:32;;;;;;;52.10;19.63;;;;;;;;;;6224640;28;20042;-82
2021/10/29 07:53:35;;;;;;;56.03;19.97;;;;;;;;;;6228525;28;20042;-81
2021/10/29 07:56:37;;;;;;;47.47;19.02;;;;;;;;;;6234959;28;20081;-81
2021/10/29 07:59:54;;;;;;;48.53;18.73;;;;;;;;;;6229447;28;20046;-83
2021/10/29 08:02:57;;;;;;;;;;;;;;;;;;6232521;28;20047;-83
2021/10/29 08:05:59;;;;;;;53.43;19.43;;;;;;;;;;6219403;28;20012;-83
2021/10/29 08:09:02;;;;;;;53.80;19.20;;;;;;;;;;6233784;28;20048;-82
2021/10/29 08:12:05;;;;;;;46.13;19.17;;;;;;;;;;6229980;28;20543;-82
2021/10/29 08:15:08;;;;;;;50.40;20.80;;;;;;;;;;6230011;28;20046;-82
2021/10/29 08:18:11;;;;;;;51.45;22.08;;;;;;;;;;6241271;28;20042;-82
2021/10/29 08:21:13;;;;;;;49.10;19.70;;;;;;;;;;6242439;28;20096;-82
2021/10/29 08:24:15;;;;;;;39.47;17.60;;;;;;;;;;6245558;28;20045;-82
2021/10/29 08:27:16;;;;;;;47.28;18.48;;;;;;;;;;6229358;28;20125;-83
2021/10/29 08:30:18;;;;;;;48.78;18.48;;;;;;;;;;6256518;28;20158;-82
2021/10/29 08:33:20;;;;;;;69.43;33.55;;;;;;;;;;6249622;28;20041;-82
2021/10/29 08:36:22;;;;;;;43.80;18.93;;;;;;;;;;6237819;28;20045;-82
2021/10/29 08:39:31;;;;;;;47.47;19.00;;;;;;;;;;6228899;28;20577;-82
2021/10/29 08:42:33;;;;;;;48.78;20.00;;;;;;;;;;6226113;28;20042;-81
2021/10/29 08:45:35;;;;;;;44.42;18.85;;;;;;;;;;6227725;28;20100;-82
2021/10/29 08:48:37;;;;;;;46.65;19.20;;;;;;;;;;6230929;28;20047;-81
2021/10/29 08:51:39;;;;;;;44.27;18.03;;;;;;;;;;6228008;28;20042;-84
2021/10/29 08:54:41;;;;;;;43.78;17.92;;;;;;;;;;6212587;28;20495;-83
2021/10/29 08:57:47;;;;;;;37.45;16.95;;;;;;;;;;6216176;28;20053;-82
2021/10/29 09:00:49;;;;;;;40.38;17.30;;;;;;;;;;6234657;28;20042;-82
2021/10/29 09:03:59;;;;;;;38.88;17.33;;;;;;;;;;6231497;28;20049;-83
2021/10/29 09:17:24;;;;;;;41.03;17.38;;;;;;;;;;6277103;28;20122;-82
2021/10/29 09:34:07;;;;;;;40.47;17.88;;;;;;;;;;6226772;28;20074;-82
2021/10/29 09:37:09;;;;;;;36.78;16.08;;;;;;;;;;6253522;28;20109;-82
2021/10/29 09:40:21;;;;;;;36.20;16.60;;;;;;;;;;6253966;28;20717;-84
2021/10/29 09:43:24;;;;;;;40.95;18.20;;;;;;;;;;6244188;28;20049;-83
2021/10/29 09:46:44;;;;;;;38.95;17.77;;;;;;;;;;6241833;28;20133;-82
2021/10/29 09:56:43;;;;;;;37.20;16.23;;;;;;;;;;6230995;28;20034;-83
2021/10/29 09:59:40;;;;;;;37.33;16.58;;;;;;;;;;6242842;28;20132;-81
2021/10/29 10:02:44;;;;;;;32.35;15.43;;;;;;;;;;6253364;28;20140;-82
2021/10/29 10:05:46;;;;;;;34.50;16.92;;;;;;;;;;6249179;28;20045;-83
2021/10/29 10:08:51;;;;;;;32.75;14.90;;;;;;;;;;6254435;28;20047;-83
2021/10/29 10:11:55;;;;;;;38.85;17.58;;;;;;;;;;6246836;28;20158;-82
2021/10/29 10:14:59;;;;;;;36.10;16.75;;;;;;;;;;6228263;28;20129;-82
2021/10/29 10:18:03;;;;;;;38.35;15.80;;;;;;;;;;6255746;28;20049;-82
2021/10/29 10:21:10;;;;;;;43.67;18.20;;;;;;;;;;6256166;28;20072;-83
2021/10/29 10:24:18;;;;;;;37.10;17.00;;;;;;;;;;6279438;28;20041;-83
2021/10/29 10:31:03;;;;;;;36.28;16.88;;;;;;;;;;6226321;28;19961;-82
2021/10/29 10:41:18;;;;;;;40.63;18.95;;;;;;;;;;6246702;28;20427;-83
2021/10/29 10:47:36;;;;;;;39.50;18.67;;;;;;;;;;6251925;28;20084;-83
2021/10/29 10:50:46;;;;;;;38.05;17.67;;;;;;;;;;6228896;28;20581;-83
2021/10/29 10:53:54;;;;;;;34.08;16.88;;;;;;;;;;6224537;28;20109;-82
2021/10/29 11:00:34;;;;;;;40.10;19.57;;;;;;;;;;6238775;28;20104;-82
2021/10/29 11:04:09;;;;;;;46.28;21.88;;;;;;;;;;6247047;28;20442;-81
2021/10/29 11:10:25;;;;;;;43.55;20.20;;;;;;;;;;6275797;28;20106;-82
2021/10/29 11:13:58;;;;;;;44.63;20.27;;;;;;;;;;6243133;28;20054;-81
2021/10/29 11:17:00;;;;;;;47.05;21.00;;;;;;;;;;6239797;28;20053;-82
2021/10/29 11:20:02;;;;;;;41.43;19.70;;;;;;;;;;6223528;28;20042;-82
2021/10/29 11:23:27;;;;;;;46.85;21.20;;;;;;;;;;6196320;28;20070;-81
2021/10/29 11:26:36;;;;;;;44.97;19.02;;;;;;;;;;6202195;28;20116;-82
2021/10/29 11:29:52;;;;;;;42.97;19.17;;;;;;;;;;6239231;28;20069;-82
2021/10/29 11:32:55;;;;;;;44.25;19.10;;;;;;;;;;6229875;28;20045;-84
2021/10/29 11:36:01;;;;;;;;;;;;;;;;;;6223999;28;20081;-83
2021/10/29 11:39:07;;;;;;;38.45;18.58;;;;;;;;;;6216805;28;19922;-81
2021/10/29 11:42:09;;;;;;;34.38;18.20;;;;;;;;;;6218530;28;20042;-82
2021/10/29 11:45:11;;;;;;;41.47;20.17;;;;;;;;;;6221298;28;20068;-82
2021/10/29 11:48:12;;;;;;;37.33;19.95;;;;;;;;;;6219243;28;20046;-83
2021/10/29 11:51:16;;;;;;;45.08;22.45;;;;;;;;;;6233913;28;20053;-82
2021/10/29 11:54:53;;;;;;;40.13;19.13;;;;;;;;;;6223316;28;20075;-81
2021/10/29 11:57:55;;;;;;;42.95;21.77;;;;;;;;;;6231153;28;20039;-83
2021/10/29 12:07:35;;;;;;;37.90;19.00;;;;;;;;;;6235404;28;20502;-82
2021/10/29 12:10:41;;;;;;;32.88;17.63;;;;;;;;;;6234593;28;20137;-82
2021/10/29 12:13:43;;;;;;;32.15;17.42;;;;;;;;;;6220391;28;20087;-82
2021/10/29 12:16:45;;;;;;;33.50;17.50;;;;;;;;;;6245457;28;20033;-83
2021/10/29 12:19:50;;;;;;;31.17;17.98;;;;;;;;;;6229160;28;20499;-83
2021/10/29 12:23:01;;;;;;;31.63;18.88;;;;;;;;;;6214836;28;20458;-83
2021/10/29 12:26:07;;;;;;;32.17;17.30;;;;;;;;;;6221777;28;20256;-82
2021/10/29 12:29:13;;;;;;;30.02;17.45;;;;;;;;;;6217593;28;20112;-82
2021/10/29 12:32:44;;;;;;;29.67;16.95;;;;;;;;;;6241595;28;20880;-83
2021/10/29 12:47:38;;;;;;;28.95;17.52;;;;;;;;;;6218938;28;20034;-82
2021/10/29 13:02:56;;;;;;;30.63;17.40;;;;;;;;;;6221779;28;20075;-83
2021/10/29 13:05:58;;;;;;;29.35;16.75;;;;;;;;;;6234483;28;20063;-82
2021/10/29 13:09:01;;;;;;;28.42;16.48;;;;;;;;;;6218735;28;20048;-83
2021/10/29 13:15:13;;;;;;;27.33;16.67;;;;;;;;;;6206140;28;20053;-85
2021/10/29 13:18:21;;;;;;;29.38;16.98;;;;;;;;;;6192581;28;20048;-85
2021/10/29 14:35:52;;;;;;;16.50;11.50;;;;;;;;;;6223070;28;20049;-83
2021/10/29 14:39:07;;;;;;;17.55;12.02;;;;;;;;;;6227498;28;20050;-83
2021/10/29 14:42:15;;;;;;;16.77;11.35;;;;;;;;;;6229956;28;20053;-83
2021/10/29 14:45:28;;;;;;;18.48;12.25;;;;;;;;;;6220699;28;20132;-83
2021/10/29 15:28:00;;;;;;;22.02;13.38;;;;;;;;;;6246491;28;20049;-82
2021/10/29 15:44:31;;;;;;;22.40;11.50;;;;;;;;;;6247397;28;20064;-83
2021/10/29 15:47:44;;;;;;;21.00;11.40;;;;;;;;;;6234257;28;20050;-83
2021/10/29 15:50:45;;;;;;;18.48;11.32;;;;;;;;;;6229804;28;20100;-82
2021/10/29 15:53:50;;;;;;;28.23;15.15;;;;;;;;;;6247759;28;20045;-83
2021/10/29 15:56:55;;;;;;;22.73;12.75;;;;;;;;;;6247437;28;20593;-83
2021/10/29 16:00:08;;;;;;;22.85;13.68;;;;;;;;;;6203407;28;20061;-84
2021/10/29 16:19:45;;;;;;;20.15;11.40;;;;;;;;;;6206369;28;20049;-83
2021/10/29 16:22:48;;;;;;;18.13;11.07;;;;;;;;;;6207956;28;20038;-83
2021/10/29 16:25:57;;;;;;;22.02;11.25;;;;;;;;;;6218995;28;20045;-83
2021/10/29 16:29:00;;;;;;;22.40;11.30;;;;;;;;;;6199196;28;20424;-82
2021/10/29 16:32:11;;;;;;;22.13;12.60;;;;;;;;;;6212792;28;20048;-83
2021/10/29 16:35:13;;;;;;;19.63;10.85;;;;;;;;;;6204626;28;20074;-83
2021/10/29 16:38:15;;;;;;;21.20;11.40;;;;;;;;;;6201735;28;20084;-82
2021/10/29 16:41:17;;;;;;;16.83;9.88;;;;;;;;;;6244240;28;20049;-84
2021/10/29 16:44:18;;;;;;;19.13;9.63;;;;;;;;;;6229631;28;20517;-84
2021/10/29 16:47:21;;;;;;;21.50;11.95;;;;;;;;;;6239524;28;20184;-83
2021/10/29 16:50:23;;;;;;;19.63;10.50;;;;;;;;;;6222466;28;20392;-83
2021/10/29 16:53:25;;;;;;;20.73;11.07;;;;;;;;;;6239462;28;20193;-83
2021/10/29 16:56:30;;;;;;;21.85;11.30;;;;;;;;;;6223799;28;20087;-83
2021/10/29 16:59:34;;;;;;;22.63;12.80;;;;;;;;;;6221487;28;20570;-83
2021/10/29 17:02:37;;;;;;;27.30;15.00;;;;;;;;;;6239406;28;20041;-82
2021/10/29 17:05:38;;;;;;;32.83;18.63;;;;;;;;;;6229155;28;20076;-82
2021/10/29 17:08:40;;;;;;;28.80;15.18;;;;;;;;;;6209274;28;20439;-82
2021/10/29 17:11:42;;;;;;;27.70;13.57;;;;;;;;;;6248834;28;20040;-82
2021/10/29 17:14:45;;;;;;;24.77;13.75;;;;;;;;;;6248152;28;20140;-82
2021/10/29 17:17:47;;;;;;;30.45;17.23;;;;;;;;;;6229593;28;20052;-83
2021/10/29 17:20:49;;;;;;;34.53;19.35;;;;;;;;;;6235980;28;20067;-82
2021/10/29 17:23:53;;;;;;;31.45;16.60;;;;;;;;;;6246378;28;20048;-81
2021/10/29 17:26:55;;;;;;;38.70;21.90;;;;;;;;;;6252976;28;20045;-82
2021/10/29 17:29:56;;;;;;;29.63;16.33;;;;;;;;;;6252256;28;20124;-81
2021/10/29 17:32:59;;;;;;;30.95;17.52;;;;;;;;;;6259793;28;20180;-81
2021/10/29 17:36:01;;;;;;;29.38;15.68;;;;;;;;;;6242022;28;20083;-81
2021/10/29 17:39:04;;;;;;;24.92;12.73;;;;;;;;;;6245127;28;20108;-81
2021/10/29 17:42:07;;;;;;;22.95;11.95;;;;;;;;;;6243661;28;20057;-83
2021/10/29 17:45:11;;;;;;;23.92;12.98;;;;;;;;;;6248934;28;20418;-82
2021/10/29 17:48:14;;;;;;;27.65;12.52;;;;;;;;;;6243234;28;20051;-82
2021/10/29 17:51:15;;;;;;;29.75;14.30;;;;;;;;;;6240546;28;20042;-81
2021/10/29 17:54:17;;;;;;;27.88;14.88;;;;;;;;;;6225066;28;20461;-81
2021/10/29 17:57:20;;;;;;;27.45;16.70;;;;;;;;;;6242293;28;20129;-82
2021/10/29 18:00:23;;;;;;;30.77;17.25;;;;;;;;;;6242098;28;20045;-79
2021/10/29 18:03:26;;;;;;;32.88;18.35;;;;;;;;;;6234228;28;20104;-84
2021/10/29 18:06:30;;;;;;;27.65;15.07;;;;;;;;;;6252543;28;20047;-81
2021/10/29 18:09:36;;;;;;;;;;;;;;;;;;6264236;28;20045;-81
2021/10/29 18:12:42;;;;;;;25.80;14.82;;;;;;;;;;6238959;28;19948;-81
2021/10/29 18:15:49;;;;;;;30.45;16.40;;;;;;;;;;6252992;28;20053;-81
2021/10/29 18:18:51;;;;;;;27.35;14.25;;;;;;;;;;6255878;28;20388;-82
2021/10/29 18:21:53;;;;;;;33.92;16.42;;;;;;;;;;6248623;28;20037;-81
2021/10/29 18:24:54;;;;;;;30.05;15.40;;;;;;;;;;6259487;28;20041;-82
2021/10/29 18:27:57;;;;;;;28.90;15.48;;;;;;;;;;6261452;28;20410;-83
2021/10/29 18:30:58;;;;;;;30.00;14.40;;;;;;;;;;6217074;28;20076;-83
2021/10/29 18:34:00;;;;;;;112.60;48.92;;;;;;;;;;6194296;28;20431;-82
2021/10/29 18:37:04;;;;;;;49.47;25.42;;;;;;;;;;6220116;28;20050;-82
2021/10/29 18:40:06;;;;;;;38.38;19.90;;;;;;;;;;6213125;28;20115;-83
2021/10/29 18:43:07;;;;;;;35.75;17.63;;;;;;;;;;6207480;28;20046;-82
2021/10/29 18:46:09;;;;;;;33.50;17.50;;;;;;;;;;6217267;28;20528;-81
2021/10/29 18:49:11;;;;;;;29.38;15.02;;;;;;;;;;6213654;28;20338;-81
2021/10/29 18:52:13;;;;;;;27.63;14.32;;;;;;;;;;6226215;28;20049;-83
2021/10/29 18:55:14;;;;;;;28.05;15.65;;;;;;;;;;6237800;28;20124;-83
2021/10/29 18:58:16;;;;;;;33.58;16.25;;;;;;;;;;6212557;28;20048;-83
2021/10/29 19:01:18;;;;;;;30.40;16.45;;;;;;;;;;6218063;28;20834;-83
2021/10/29 19:04:20;;;;;;;34.03;18.55;;;;;;;;;;6208835;28;20089;-82
2021/10/29 19:07:22;;;;;;;94.53;45.45;;;;;;;;;;6234111;28;20040;-82
2021/10/29 19:10:24;;;;;;;40.70;24.15;;;;;;;;;;6228329;28;20038;-83
2021/10/29 19:13:26;;;;;;;29.67;17.05;;;;;;;;;;6209495;28;20042;-83
2021/10/29 19:16:27;;;;;;;45.65;24.13;;;;;;;;;;6224540;28;20146;-82
2021/10/29 19:19:29;;;;;;;52.20;26.13;;;;;;;;;;6225695;28;20045;-84
2021/10/29 19:22:32;;;;;;;78.45;37.92;;;;;;;;;;6210846;28;20042;-82
2021/10/29 19:25:33;;;;;;;55.60;27.80;;;;;;;;;;6213695;28;20414;-82
2021/10/29 19:28:35;;;;;;;54.10;26.10;;;;;;;;;;6202052;28;20042;-82
2021/10/29 19:31:37;;;;;;;33.55;18.33;;;;;;;;;;6187899;28;20515;-83
2021/10/29 19:34:45;;;;;;;28.10;15.05;;;;;;;;;;6201121;28;20059;-86
2021/10/29 19:40:54;;;;;;;25.50;14.77;;;;;;;;;;6246123;28;20041;-84
2021/10/29 19:43:56;;;;;;;29.55;15.30;;;;;;;;;;6218727;28;20565;-84
2021/10/29 19:46:58;;;;;;;26.95;13.48;;;;;;;;;;6236814;28;20550;-83
2021/10/29 19:49:59;;;;;;;24.13;13.13;;;;;;;;;;6228962;28;20140;-83
2021/10/29 19:53:01;;;;;;;27.92;13.90;;;;;;;;;;6217710;28;20045;-83
2021/10/29 19:56:04;;;;;;;27.75;14.20;;;;;;;;;;6218786;28;20504;-82
2021/10/29 19:59:07;;;;;;;27.67;14.23;;;;;;;;;;6218904;28;20059;-84
2021/10/29 20:02:09;;;;;;;27.98;15.20;;;;;;;;;;6236591;28;20556;-83
2021/10/29 20:05:11;;;;;;;25.80;12.98;;;;;;;;;;6223415;28;20549;-84
2021/10/29 20:08:13;;;;;;;26.35;13.60;;;;;;;;;;6245160;28;20052;-83
2021/10/29 20:11:15;;;;;;;24.40;12.02;;;;;;;;;;6230450;28;20073;-83
2021/10/29 20:14:16;;;;;;;27.13;13.05;;;;;;;;;;6211768;28;20046;-83
2021/10/29 20:17:18;;;;;;;32.35;17.23;;;;;;;;;;6227769;28;20101;-83
2021/10/29 20:20:20;;;;;;;30.48;15.25;;;;;;;;;;6221482;28;20120;-83
2021/10/29 20:23:22;;;;;;;26.30;13.23;;;;;;;;;;6206436;28;20045;-84
2021/10/29 20:26:25;;;;;;;22.52;11.25;;;;;;;;;;6217411;28;20046;-84
2021/10/29 20:29:27;;;;;;;35.15;18.42;;;;;;;;;;6220431;28;20725;-84
2021/10/29 20:32:29;;;;;;;29.80;14.75;;;;;;;;;;6221451;28;20045;-84
2021/10/29 20:35:31;;;;;;;29.25;15.40;;;;;;;;;;6219375;28;20084;-84
2021/10/29 20:38:33;;;;;;;30.50;14.98;;;;;;;;;;6228007;28;20042;-84
2021/10/29 20:41:37;;;;;;;27.60;14.88;;;;;;;;;;6220507;28;20110;-84
2021/10/29 20:44:39;;;;;;;31.98;16.30;;;;;;;;;;6211652;28;20132;-84
2021/10/29 20:47:40;;;;;;;42.35;20.77;;;;;;;;;;6216840;28;20050;-83
2021/10/29 20:50:42;;;;;;;37.30;16.40;;;;;;;;;;6235654;28;20049;-83
2021/10/29 20:53:44;;;;;;;33.72;15.82;;;;;;;;;;6249594;28;20053;-83
2021/10/29 20:56:46;;;;;;;36.70;17.25;;;;;;;;;;6226424;28;20127;-83
2021/10/29 20:59:48;;;;;;;37.67;17.75;;;;;;;;;;6225174;28;20623;-82
2021/10/29 21:02:49;;;;;;;35.85;17.42;;;;;;;;;;6209050;28;20045;-82
2021/10/29 21:05:51;;;;;;;38.67;18.17;;;;;;;;;;6213371;28;20058;-82
2021/10/29 21:08:53;;;;;;;35.00;17.20;;;;;;;;;;6219181;28;20048;-80
2021/10/29 21:11:55;;;;;;;32.10;16.08;;;;;;;;;;6218157;28;21676;-83
2021/10/29 21:14:57;;;;;;;35.70;17.90;;;;;;;;;;6232896;28;20180;-83
2021/10/29 21:17:59;;;;;;;41.22;18.17;;;;;;;;;;6219289;28;20399;-82
2021/10/29 21:21:00;;;;;;;40.13;18.02;;;;;;;;;;6215472;28;20053;-83
2021/10/29 21:24:03;;;;;;;35.67;16.52;;;;;;;;;;6199086;28;20069;-82
2021/10/29 21:27:06;;;;;;;32.83;17.05;;;;;;;;;;6207854;28;20530;-83
2021/10/29 21:30:08;;;;;;;;;;;;;;;;;;6226589;28;20046;-81
2021/10/29 21:33:10;;;;;;;28.27;12.82;;;;;;;;;;6218038;28;19936;-79
2021/10/29 21:36:11;;;;;;;22.42;11.60;;;;;;;;;;6213094;28;20057;-84
2021/10/29 21:39:13;;;;;;;23.17;11.20;;;;;;;;;;6218871;28;20050;-83
2021/10/29 21:42:15;;;;;;;23.52;11.75;;;;;;;;;;6195815;28;20323;-82
2021/10/29 21:45:17;;;;;;;29.63;13.45;;;;;;;;;;6183500;28;20057;-80
2021/10/29 21:48:18;;;;;;;26.08;14.13;;;;;;;;;;6237974;28;20045;-82
2021/10/29 21:51:20;;;;;;;30.58;15.45;;;;;;;;;;6200837;28;20182;-80
2021/10/29 21:54:23;;;;;;;34.63;15.00;;;;;;;;;;6215462;28;20419;-84
2021/10/29 21:57:25;;;;;;;33.50;14.63;;;;;;;;;;6212661;28;20751;-84
2021/10/29 22:00:43;;;;;;;35.63;16.10;;;;;;;;;;6232368;28;20470;-83
2021/10/29 22:03:46;;;;;;;29.23;15.02;;;;;;;;;;6218502;28;20056;-82
2021/10/29 22:06:48;;;;;;;31.25;15.35;;;;;;;;;;6218324;28;20049;-80
2021/10/29 22:09:49;;;;;;;28.95;14.15;;;;;;;;;;6203729;28;20057;-82
2021/10/29 22:12:51;;;;;;;26.70;13.55;;;;;;;;;;6217382;28;20049;-83
2021/10/29 22:15:57;;;;;;;24.95;12.13;;;;;;;;;;6198407;28;20592;-82
2021/10/29 22:18:59;;;;;;;31.00;13.00;;;;;;;;;;6204218;28;20875;-83
2021/10/29 22:22:00;;;;;;;32.58;14.70;;;;;;;;;;6204564;28;20046;-81
2021/10/29 22:25:03;;;;;;;34.90;14.30;;;;;;;;;;6202171;28;20051;-83
2021/10/29 22:28:06;;;;;;;35.97;15.55;;;;;;;;;;6198611;28;20042;-82
2021/10/29 22:31:08;;;;;;;34.73;15.07;;;;;;;;;;6212568;28;20046;-82
2021/10/29 22:34:10;;;;;;;35.03;15.18;;;;;;;;;;6198383;28;20043;-82
2021/10/29 22:37:12;;;;;;;35.83;16.48;;;;;;;;;;6203040;28;20050;-81
2021/10/29 22:40:14;;;;;;;34.97;15.57;;;;;;;;;;6213612;28;20049;-81